F/V Manathia — FGSL — position and weather

sailwx.info

Track history (hours):
 
Tides and Currents Weather Stations Pressure Air Temp Water Temp Dewpoint Dewpoint Depression Visibility Wind Speed Wind Dir Waves Ship Positions

F/V Manathia

Last reported at 2016-May-27 10:30 UTC. Time now 2016-May-27 14:20 UTC.
Position N 47°34' W 004°24'.

Length 16 m.

Type: Fishing. MMSI: 228258000.

Date/timePositionNaut miles runAvg speedWind from/ knotsBaromVisibWave heightAir tempDewpointWater temp
2016-May-27 10:30N 47°34' W 004°24'1 0.5
2016-May-27 09:13N 47°33' W 004°24'2 2.7
2016-May-27 08:33N 47°32' W 004°26'3 2.9
2016-May-27 07:32N 47°29' W 004°28'3 2.7
2016-May-27 06:33N 47°27' W 004°28'3 2.6
2016-May-27 05:33N 47°29' W 004°28'8 3.9
2016-May-27 03:26N 47°37' W 004°23'5 0.1
2016-May-25 07:26N 47°32' W 004°22'6 1.7
2016-May-25 03:33N 47°38' W 004°18'7 0.3
2016-May-24 02:33N 47°45' W 004°18'  
Track history (hours):
 
Tides and Currents Weather Stations Pressure Air Temp Water Temp Dewpoint Dewpoint Depression Visibility Wind Speed Wind Dir Waves Ship Positions

F/V Manathia

Last reported at 2016-May-27 10:30 UTC. Time now 2016-May-27 14:20 UTC.
Position N 47°34' W 004°24'.

Length 16 m.

Type: Fishing. MMSI: 228258000.

Date/timePositionNaut miles runAvg speedWind from/ knotsBaromVisibWave heightAir tempDewpointWater temp
2016-May-27 10:30N 47°34' W 004°24'1 0.5
2016-May-27 09:13N 47°33' W 004°24'2 2.7
2016-May-27 08:33N 47°32' W 004°26'3 2.9
2016-May-27 07:32N 47°29' W 004°28'3 2.7
2016-May-27 06:33N 47°27' W 004°28'3 2.6
2016-May-27 05:33N 47°29' W 004°28'8 3.9
2016-May-27 03:26N 47°37' W 004°23'5 0.1
2016-May-25 07:26N 47°32' W 004°22'6 1.7
2016-May-25 03:33N 47°38' W 004°18'7 0.3
2016-May-24 02:33N 47°45' W 004°18'  

Dump ship's entire track history